createdAt,value
2018-07-27T00:01:04.958Z,99.90
2018-07-27T00:03:32.803Z,99.90
2018-07-27T00:06:00.468Z,99.90
2018-07-27T00:08:27.119Z,99.90
2018-07-27T00:10:53.904Z,99.90
2018-07-27T00:13:20.764Z,99.90
2018-07-27T00:15:47.529Z,99.90
2018-07-27T00:18:14.989Z,99.90
2018-07-27T00:20:41.706Z,99.90
2018-07-27T00:23:08.504Z,99.90
2018-07-27T00:25:35.935Z,99.90
2018-07-27T00:28:02.706Z,99.90
2018-07-27T00:30:29.366Z,99.90
2018-07-27T00:32:56.025Z,99.90
2018-07-27T00:35:22.745Z,99.90
2018-07-27T00:37:49.412Z,99.90
2018-07-27T00:40:16.872Z,99.90
2018-07-27T00:42:43.587Z,99.90
2018-07-27T00:45:10.292Z,99.90
2018-07-27T00:47:37.731Z,99.90
2018-07-27T00:50:05.208Z,99.90
2018-07-27T00:52:32.645Z,99.90
2018-07-27T00:54:59.303Z,99.90
2018-07-27T00:57:26.885Z,99.90
2018-07-27T00:59:53.545Z,99.90
2018-07-27T01:02:20.231Z,99.90
2018-07-27T01:04:46.943Z,99.90
2018-07-27T01:07:13.600Z,99.90
2018-07-27T01:09:41.072Z,99.90
2018-07-27T01:12:08.502Z,99.90
2018-07-27T01:14:35.188Z,99.90
2018-07-27T01:17:01.851Z,99.90
2018-07-27T01:19:28.526Z,99.90
2018-07-27T01:21:55.219Z,99.90
2018-07-27T01:24:21.878Z,99.90
2018-07-27T01:26:48.559Z,99.90
2018-07-27T01:29:15.278Z,99.90
2018-07-27T01:31:42.010Z,99.90
2018-07-27T01:34:08.663Z,99.90
2018-07-27T01:36:35.516Z,99.90
2018-07-27T01:39:03.005Z,99.90
2018-07-27T01:41:29.710Z,99.90
2018-07-27T01:43:57.171Z,99.90
2018-07-27T01:46:24.599Z,99.90
2018-07-27T01:48:51.269Z,99.90
2018-07-27T01:51:18.802Z,99.90
2018-07-27T01:53:45.473Z,99.90
2018-07-27T01:56:12.871Z,99.90
2018-07-27T01:58:39.619Z,99.90
2018-07-27T02:01:06.320Z,99.90
2018-07-27T02:03:33.018Z,99.90
2018-07-27T02:05:59.679Z,99.90
2018-07-27T02:08:26.349Z,99.90
2018-07-27T02:10:53.075Z,99.90
2018-07-27T02:13:20.469Z,99.90
2018-07-27T02:15:47.245Z,99.90
2018-07-27T02:18:13.889Z,99.90
2018-07-27T02:20:41.334Z,99.90
2018-07-27T02:23:08.043Z,99.90
2018-07-27T02:25:34.698Z,99.90
2018-07-27T02:28:01.364Z,99.90
2018-07-27T02:30:28.809Z,99.90
2018-07-27T02:32:55.469Z,99.90
2018-07-27T02:35:22.912Z,99.90
2018-07-27T02:37:49.556Z,99.90
2018-07-27T02:40:16.952Z,99.90
2018-07-27T02:42:43.668Z,99.90
2018-07-27T02:45:11.070Z,99.90
2018-07-27T02:47:37.777Z,99.90
2018-07-27T02:50:19.461Z,99.90
2018-07-27T02:52:46.151Z,99.90
2018-07-27T02:55:12.837Z,99.90
2018-07-27T02:57:39.629Z,99.90
2018-07-27T03:00:06.293Z,99.90
2018-07-27T03:02:33.719Z,99.90
2018-07-27T03:05:00.441Z,99.90
2018-07-27T03:07:27.121Z,99.90
2018-07-27T03:09:53.915Z,99.90
2018-07-27T03:12:21.225Z,99.90
2018-07-27T03:14:48.673Z,99.90
2018-07-27T03:17:15.342Z,99.90
2018-07-27T03:19:42.015Z,99.90
2018-07-27T03:22:08.669Z,99.90
2018-07-27T03:24:35.350Z,99.90
2018-07-27T03:27:02.783Z,99.90
2018-07-27T03:29:29.481Z,99.90
2018-07-27T03:31:56.155Z,99.90
2018-07-27T03:34:22.795Z,99.90
2018-07-27T03:36:49.490Z,99.90
2018-07-27T03:39:16.169Z,99.90
2018-07-27T03:41:42.813Z,99.90
2018-07-27T03:44:09.574Z,99.90
2018-07-27T03:46:37.015Z,99.90
2018-07-27T03:49:03.715Z,99.90
2018-07-27T03:51:30.443Z,99.90
2018-07-27T03:53:57.123Z,99.90
2018-07-27T03:56:23.834Z,99.90
2018-07-27T03:58:50.516Z,99.90
2018-07-27T04:01:17.971Z,99.90
2018-07-27T04:03:44.635Z,99.90
2018-07-27T04:06:11.296Z,99.90
2018-07-27T04:08:37.991Z,99.90
2018-07-27T04:11:04.636Z,99.90
2018-07-27T04:13:32.046Z,99.90
2018-07-27T04:15:58.750Z,99.90
2018-07-27T04:18:25.436Z,99.90
2018-07-27T04:20:52.128Z,99.90
2018-07-27T04:23:19.532Z,99.90
2018-07-27T04:25:46.200Z,99.90
2018-07-27T04:28:13.651Z,99.90
2018-07-27T04:30:40.320Z,99.90
2018-07-27T04:33:07.961Z,99.90
2018-07-27T04:35:34.753Z,99.90
2018-07-27T04:38:01.416Z,99.90
2018-07-27T04:40:28.085Z,99.90
2018-07-27T04:42:55.725Z,99.90
2018-07-27T04:45:23.230Z,99.90
2018-07-27T04:47:49.975Z,99.90
2018-07-27T04:50:16.711Z,99.90
2018-07-27T04:52:43.449Z,99.90
2018-07-27T04:55:10.176Z,99.90
2018-07-27T04:57:37.651Z,99.90
2018-07-27T05:00:04.392Z,99.90
2018-07-27T05:02:31.132Z,99.90
2018-07-27T05:04:57.869Z,99.90
2018-07-27T05:07:24.545Z,99.90
2018-07-27T05:09:53.560Z,99.90
2018-07-27T05:12:21.038Z,99.90
2018-07-27T05:14:47.735Z,99.90
2018-07-27T05:17:14.442Z,99.90
2018-07-27T05:19:41.182Z,99.90
2018-07-27T05:22:07.921Z,99.90
2018-07-27T05:24:34.793Z,99.90
2018-07-27T05:27:01.475Z,99.90
2018-07-27T05:29:28.242Z,99.90
2018-07-27T05:31:54.982Z,99.90
2018-07-27T05:34:21.760Z,99.90
2018-07-27T05:36:48.568Z,99.90
2018-07-27T05:39:15.306Z,99.90
2018-07-27T05:41:42.045Z,99.90
2018-07-27T05:44:08.719Z,99.90
2018-07-27T05:46:35.529Z,99.90
2018-07-27T05:49:02.268Z,99.90
2018-07-27T05:51:29.005Z,99.90
2018-07-27T05:53:55.725Z,99.90
2018-07-27T05:56:23.205Z,99.90
2018-07-27T05:58:50.251Z,99.90
2018-07-27T06:01:17.039Z,99.90
2018-07-27T06:03:43.836Z,99.90
2018-07-27T06:06:10.578Z,99.90
2018-07-27T06:08:37.336Z,99.90
2018-07-27T06:11:04.037Z,99.90
2018-07-27T06:13:31.515Z,99.90
2018-07-27T06:15:58.227Z,99.90
2018-07-27T06:18:25.602Z,99.90
2018-07-27T06:20:52.484Z,99.90
2018-07-27T06:23:19.192Z,99.90
2018-07-27T06:25:45.910Z,99.90
2018-07-27T06:28:13.352Z,99.90
2018-07-27T06:30:40.030Z,99.90
2018-07-27T06:33:06.768Z,99.90
2018-07-27T06:35:33.489Z,99.90
2018-07-27T06:38:00.357Z,99.90
2018-07-27T06:40:27.026Z,99.90
2018-07-27T06:42:53.733Z,99.90
2018-07-27T06:45:20.525Z,99.90
2018-07-27T06:47:47.940Z,99.90
2018-07-27T06:50:14.671Z,99.90
2018-07-27T06:52:41.418Z,99.90
2018-07-27T06:55:08.065Z,99.90
2018-07-27T06:57:34.787Z,99.90
2018-07-27T07:00:01.837Z,99.90
2018-07-27T07:02:28.578Z,99.90
2018-07-27T07:04:55.316Z,99.90
2018-07-27T07:07:21.987Z,99.90
2018-07-27T07:09:48.664Z,99.90
2018-07-27T07:12:22.400Z,99.90
2018-07-27T07:14:49.052Z,99.90
2018-07-27T07:17:15.778Z,99.90
2018-07-27T07:19:42.521Z,99.90
2018-07-27T07:22:09.257Z,99.90
2018-07-27T07:24:35.998Z,99.90
2018-07-27T07:27:02.741Z,99.90
2018-07-27T07:29:29.479Z,99.90
2018-07-27T07:31:56.220Z,99.90
2018-07-27T07:34:22.961Z,99.90
2018-07-27T07:36:49.699Z,99.80
2018-07-27T07:39:17.131Z,92.30
2018-07-27T07:41:43.778Z,92.20
2018-07-27T07:44:11.177Z,78.00
2018-07-27T07:46:37.894Z,78.00
2018-07-27T07:49:04.738Z,77.60
2018-07-27T07:51:31.472Z,75.70
2018-07-27T07:53:58.144Z,73.90
2018-07-27T07:56:24.959Z,71.30
2018-07-27T07:58:51.675Z,68.00
2018-07-27T08:01:19.152Z,65.10
2018-07-27T08:03:45.894Z,65.00
2018-07-27T08:06:12.632Z,64.00
2018-07-27T08:08:39.349Z,60.80
2018-07-27T08:11:06.784Z,58.20
2018-07-27T08:13:33.477Z,58.10
2018-07-27T08:16:00.092Z,56.50
2018-07-27T08:18:27.522Z,55.90
2018-07-27T08:20:54.223Z,55.90
2018-07-27T08:23:20.894Z,56.50
2018-07-27T08:25:47.591Z,57.10
2018-07-27T08:28:26.673Z,56.40
2018-07-27T08:30:53.305Z,53.60
